KSNS

Salinas Municipal Airport

Salinas, California, USA
KSNS 201727Z 2018/2118 35007KT P6SM SCT180 FM202100 29012KT P6SM SCT180 FM210400 30009KT P6SM SCT008 FM210600 33002KT P6SM OVC008
Issued Valid From Valid To
Jul-20 @ 17:27 UTC
(5 hours ago)
Jul-20 @ 18:00 UTC
(4 hours ago)
Jul-21 @ 18:00 UTC
(in 20 hours)
Expired Click to View Jul-20 @ 18:00 to Jul-20 @ 21:00
KSNS 201727Z 2018/2118 35007KT P6SM SCT180
Wind Visibility Clouds
350° at 7 knots Greater than 6 miles
  • Scattered at 18,000' AGL
From Jul-20 @ 21:00 to Jul-21 @ 04:00
FM202100 29012KT P6SM SCT180
Wind Visibility Clouds
290° at 12 knots Greater than 6 miles
  • Scattered at 18,000' AGL
From Jul-21 @ 04:00 to Jul-21 @ 06:00
FM210400 30009KT P6SM SCT008
Wind Visibility Clouds
300° at 9 knots Greater than 6 miles
  • Scattered at 800' AGL
From Jul-21 @ 06:00 to Jul-21 @ 18:00
FM210600 33002KT P6SM OVC008
Wind Visibility Clouds
330° at 2 knots Greater than 6 miles
  • Overcast at 800' AGL
KSNS 201727Z 2018/2118 35007KT P6SM SCT180 FM202100 29012KT P6SM SCT180 FM210400 30009KT P6SM SCT008 FM210600 33002KT P6SM OVC008
Issued Jul-20 @ 17:27 UTC
(5 hours ago)
Valid From Jul-20 @ 18:00 UTC
(4 hours ago)
Valid To Jul-21 @ 18:00 UTC
(in 20 hours)
Jul-20 @ 18:00 - Jul-20 @ 21:00
Wind Visibility
350° at 7 knots Greater than 6 miles
Clouds
  • Scattered at 18,000' AGL
From Jul-20 @ 21:00 - Jul-21 @ 04:00
Wind Visibility
290° at 12 knots Greater than 6 miles
Clouds
  • Scattered at 18,000' AGL
From Jul-21 @ 04:00 - Jul-21 @ 06:00
Wind Visibility
300° at 9 knots Greater than 6 miles
Clouds
  • Scattered at 800' AGL
From Jul-21 @ 06:00 - Jul-21 @ 18:00
Wind Visibility
330° at 2 knots Greater than 6 miles
Clouds
  • Overcast at 800' AGL